sensor_id;sensor_type;location;lat;lon;timestamp;pressure;altitude;pressure_sealevel;temperature;humidity
11077;BME280;5591;42.626;23.380;2024-01-30T00:00:36;96093.13;;;1.30;100.00
11077;BME280;5591;42.626;23.380;2024-01-30T00:03:03;96103.78;;;1.40;100.00
11077;BME280;5591;42.626;23.380;2024-01-30T00:05:30;96099.66;;;1.51;100.00
11077;BME280;5591;42.626;23.380;2024-01-30T00:07:57;96096.00;;;1.10;100.00
11077;BME280;5591;42.626;23.380;2024-01-30T00:10:25;96102.47;;;1.33;100.00
11077;BME280;5591;42.626;23.380;2024-01-30T00:12:52;96100.50;;;1.52;100.00
11077;BME280;5591;42.626;23.380;2024-01-30T00:15:18;96033.84;;;1.27;100.00
11077;BME280;5591;42.626;23.380;2024-01-30T00:17:45;96100.44;;;1.38;100.00
11077;BME280;5591;42.626;23.380;2024-01-30T00:20:12;96101.75;;;1.45;100.00
11077;BME280;5591;42.626;23.380;2024-01-30T00:22:39;96112.59;;;1.22;100.00
11077;BME280;5591;42.626;23.380;2024-01-30T00:25:06;96115.81;;;1.41;100.00
11077;BME280;5591;42.626;23.380;2024-01-30T00:27:34;96111.88;;;1.63;100.00
11077;BME280;5591;42.626;23.380;2024-01-30T00:30:01;96111.13;;;1.61;100.00
11077;BME280;5591;42.626;23.380;2024-01-30T00:32:28;96112.00;;;1.62;100.00
11077;BME280;5591;42.626;23.380;2024-01-30T00:34:54;96112.19;;;1.43;100.00
11077;BME280;5591;42.626;23.380;2024-01-30T00:37:21;96118.53;;;1.08;100.00
11077;BME280;5591;42.626;23.380;2024-01-30T00:39:48;96118.63;;;0.91;100.00
11077;BME280;5591;42.626;23.380;2024-01-30T00:42:15;96113.41;;;1.22;100.00
11077;BME280;5591;42.626;23.380;2024-01-30T00:44:43;96109.81;;;1.25;100.00
11077;BME280;5591;42.626;23.380;2024-01-30T00:47:10;96112.91;;;1.16;100.00
11077;BME280;5591;42.626;23.380;2024-01-30T00:49:37;96115.28;;;1.05;100.00
11077;BME280;5591;42.626;23.380;2024-01-30T00:52:04;96116.69;;;0.95;100.00
11077;BME280;5591;42.626;23.380;2024-01-30T00:54:30;96115.13;;;1.08;100.00
11077;BME280;5591;42.626;23.380;2024-01-30T00:56:57;96114.53;;;0.56;100.00
11077;BME280;5591;42.626;23.380;2024-01-30T00:59:24;96104.38;;;0.69;100.00
11077;BME280;5591;42.626;23.380;2024-01-30T01:01:52;96109.97;;;0.77;100.00
11077;BME280;5591;42.626;23.380;2024-01-30T01:04:19;96096.78;;;0.35;100.00
11077;BME280;5591;42.626;23.380;2024-01-30T01:06:46;96093.28;;;0.36;100.00
11077;BME280;5591;42.626;23.380;2024-01-30T01:09:13;96099.72;;;0.75;100.00
11077;BME280;5591;42.626;23.380;2024-01-30T01:11:40;96103.69;;;0.50;100.00
11077;BME280;5591;42.626;23.380;2024-01-30T01:14:06;96107.47;;;0.60;100.00
11077;BME280;5591;42.626;23.380;2024-01-30T01:16:34;96090.78;;;0.81;100.00
11077;BME280;5591;42.626;23.380;2024-01-30T01:19:02;96103.38;;;0.71;100.00
11077;BME280;5591;42.626;23.380;2024-01-30T01:21:29;96105.72;;;0.45;100.00
11077;BME280;5591;42.626;23.380;2024-01-30T01:23:55;96095.78;;;0.53;100.00
11077;BME280;5591;42.626;23.380;2024-01-30T01:26:22;96100.13;;;0.68;100.00
11077;BME280;5591;42.626;23.380;2024-01-30T01:28:49;96105.88;;;0.88;100.00
11077;BME280;5591;42.626;23.380;2024-01-30T01:31:15;96108.13;;;0.94;100.00
11077;BME280;5591;42.626;23.380;2024-01-30T01:33:43;96105.63;;;0.93;100.00
11077;BME280;5591;42.626;23.380;2024-01-30T01:36:11;96106.28;;;0.96;100.00
11077;BME280;5591;42.626;23.380;2024-01-30T01:38:37;96109.88;;;0.94;100.00
11077;BME280;5591;42.626;23.380;2024-01-30T01:41:05;96117.13;;;0.87;100.00
11077;BME280;5591;42.626;23.380;2024-01-30T01:43:31;96118.22;;;0.68;100.00
11077;BME280;5591;42.626;23.380;2024-01-30T01:45:58;96114.03;;;1.12;100.00
11077;BME280;5591;42.626;23.380;2024-01-30T01:48:25;96100.25;;;1.11;100.00
11077;BME280;5591;42.626;23.380;2024-01-30T01:50:53;96107.44;;;1.06;100.00
11077;BME280;5591;42.626;23.380;2024-01-30T01:53:21;96113.63;;;0.88;100.00
11077;BME280;5591;42.626;23.380;2024-01-30T01:55:48;96114.22;;;0.78;100.00
11077;BME280;5591;42.626;23.380;2024-01-30T01:58:15;96103.03;;;0.93;100.00
11077;BME280;5591;42.626;23.380;2024-01-30T02:00:43;96118.88;;;0.87;100.00
11077;BME280;5591;42.626;23.380;2024-01-30T02:03:10;96118.88;;;0.87;100.00
11077;BME280;5591;42.626;23.380;2024-01-30T02:05:38;96119.19;;;0.96;100.00
11077;BME280;5591;42.626;23.380;2024-01-30T02:08:06;96115.16;;;1.22;100.00
11077;BME280;5591;42.626;23.380;2024-01-30T02:10:34;96118.72;;;0.74;100.00
11077;BME280;5591;42.626;23.380;2024-01-30T02:13:01;96116.13;;;1.05;100.00
11077;BME280;5591;42.626;23.380;2024-01-30T02:15:28;96128.19;;;1.05;100.00
11077;BME280;5591;42.626;23.380;2024-01-30T02:17:55;96117.94;;;1.19;100.00
11077;BME280;5591;42.626;23.380;2024-01-30T02:20:22;96115.56;;;1.30;100.00
11077;BME280;5591;42.626;23.380;2024-01-30T02:22:52;96114.69;;;1.45;100.00
11077;BME280;5591;42.626;23.380;2024-01-30T02:25:20;96115.53;;;1.75;99.75
11077;BME280;5591;42.626;23.380;2024-01-30T02:27:56;96112.47;;;1.82;97.26
11077;BME280;5591;42.626;23.380;2024-01-30T02:30:23;96111.81;;;1.79;97.41
11077;BME280;5591;42.626;23.380;2024-01-30T02:32:49;96111.13;;;1.47;97.41
11077;BME280;5591;42.626;23.380;2024-01-30T02:35:16;96112.19;;;1.43;97.89
11077;BME280;5591;42.626;23.380;2024-01-30T02:37:43;96111.13;;;1.61;97.34
11077;BME280;5591;42.626;23.380;2024-01-30T02:40:11;96113.69;;;1.47;97.03
11077;BME280;5591;42.626;23.380;2024-01-30T02:42:39;96113.66;;;1.33;96.89
11077;BME280;5591;42.626;23.380;2024-01-30T02:45:08;96113.56;;;1.35;97.38
11077;BME280;5591;42.626;23.380;2024-01-30T02:47:35;96114.78;;;1.73;96.42
11077;BME280;5591;42.626;23.380;2024-01-30T02:50:01;96108.41;;;1.49;95.80
11077;BME280;5591;42.626;23.380;2024-01-30T02:52:28;96114.44;;;1.93;94.17
11077;BME280;5591;42.626;23.380;2024-01-30T02:54:55;96111.75;;;1.80;94.57
11077;BME280;5591;42.626;23.380;2024-01-30T02:57:23;96108.69;;;1.74;94.15
11077;BME280;5591;42.626;23.380;2024-01-30T02:59:50;96106.28;;;1.71;93.53
11077;BME280;5591;42.626;23.380;2024-01-30T03:02:17;96112.34;;;1.70;92.69
11077;BME280;5591;42.626;23.380;2024-01-30T03:04:43;96109.47;;;1.60;91.61
11077;BME280;5591;42.626;23.380;2024-01-30T03:07:10;96102.91;;;1.98;91.04
11077;BME280;5591;42.626;23.380;2024-01-30T03:09:37;96106.97;;;1.88;89.06
11077;BME280;5591;42.626;23.380;2024-01-30T03:12:05;96103.06;;;1.95;90.10
11077;BME280;5591;42.626;23.380;2024-01-30T03:14:33;96103.72;;;1.85;91.46
11077;BME280;5591;42.626;23.380;2024-01-30T03:17:00;96116.75;;;1.54;92.68
11077;BME280;5591;42.626;23.380;2024-01-30T03:19:27;96108.09;;;1.69;93.32
11077;BME280;5591;42.626;23.380;2024-01-30T03:21:53;96103.59;;;1.86;93.13
11077;BME280;5591;42.626;23.380;2024-01-30T03:24:20;96096.53;;;2.04;91.56
11077;BME280;5591;42.626;23.380;2024-01-30T03:26:47;96096.59;;;1.45;92.28
11077;BME280;5591;42.626;23.380;2024-01-30T03:29:14;96104.78;;;1.67;92.32
11077;BME280;5591;42.626;23.380;2024-01-30T03:31:42;96103.16;;;1.94;90.59
11077;BME280;5591;42.626;23.380;2024-01-30T03:34:09;96104.09;;;1.93;89.75
11077;BME280;5591;42.626;23.380;2024-01-30T03:36:36;96100.00;;;1.89;91.12
11077;BME280;5591;42.626;23.380;2024-01-30T03:39:02;96087.97;;;1.60;93.42
11077;BME280;5591;42.626;23.380;2024-01-30T03:41:29;96092.91;;;1.92;91.57
11077;BME280;5591;42.626;23.380;2024-01-30T03:43:56;96101.38;;;1.80;91.04
11077;BME280;5591;42.626;23.380;2024-01-30T03:46:23;96099.28;;;1.87;91.24
11077;BME280;5591;42.626;23.380;2024-01-30T03:48:51;96091.28;;;1.32;91.52
11077;BME280;5591;42.626;23.380;2024-01-30T03:51:18;96090.75;;;1.71;87.92
11077;BME280;5591;42.626;23.380;2024-01-30T03:53:45;96085.53;;;1.57;86.88
11077;BME280;5591;42.626;23.380;2024-01-30T03:56:12;96086.13;;;1.62;88.68
11077;BME280;5591;42.626;23.380;2024-01-30T03:58:39;96089.84;;;1.86;87.34
11077;BME280;5591;42.626;23.380;2024-01-30T04:01:07;96084.69;;;2.14;86.00
11077;BME280;5591;42.626;23.380;2024-01-30T04:03:34;96092.34;;;1.87;86.57
11077;BME280;5591;42.626;23.380;2024-01-30T04:06:02;96095.34;;;2.09;88.86
11077;BME280;5591;42.626;23.380;2024-01-30T04:08:29;96083.31;;;2.22;86.68
11077;BME280;5591;42.626;23.380;2024-01-30T04:10:55;96083.31;;;2.22;84.76
11077;BME280;5591;42.626;23.380;2024-01-30T04:13:22;96084.03;;;2.24;84.88
11077;BME280;5591;42.626;23.380;2024-01-30T04:15:49;96085.59;;;1.85;84.38
11077;BME280;5591;42.626;23.380;2024-01-30T04:18:15;96088.75;;;2.04;85.00
11077;BME280;5591;42.626;23.380;2024-01-30T04:20:42;96091.81;;;2.10;81.47
11077;BME280;5591;42.626;23.380;2024-01-30T04:23:10;96088.41;;;2.24;80.43
11077;BME280;5591;42.626;23.380;2024-01-30T04:25:37;96092.38;;;2.29;80.17
11077;BME280;5591;42.626;23.380;2024-01-30T04:28:04;96090.34;;;2.20;79.48
11077;BME280;5591;42.626;23.380;2024-01-30T04:30:31;96086.53;;;2.12;79.99
11077;BME280;5591;42.626;23.380;2024-01-30T04:32:58;96089.03;;;2.13;80.02
11077;BME280;5591;42.626;23.380;2024-01-30T04:35:24;96091.34;;;2.04;79.36
11077;BME280;5591;42.626;23.380;2024-01-30T04:37:52;96092.22;;;1.75;81.45
11077;BME280;5591;42.626;23.380;2024-01-30T04:40:20;96100.19;;;1.72;80.67
11077;BME280;5591;42.626;23.380;2024-01-30T04:42:47;96106.88;;;1.60;81.48
11077;BME280;5591;42.626;23.380;2024-01-30T04:45:13;96099.84;;;1.48;81.84
11077;BME280;5591;42.626;23.380;2024-01-30T04:47:40;96100.66;;;1.49;80.72
11077;BME280;5591;42.626;23.380;2024-01-30T04:50:08;96101.44;;;1.51;80.94
11077;BME280;5591;42.626;23.380;2024-01-30T04:52:35;96108.63;;;1.30;80.73
11077;BME280;5591;42.626;23.380;2024-01-30T04:55:02;96116.28;;;1.18;81.76
11077;BME280;5591;42.626;23.380;2024-01-30T04:57:30;96120.44;;;1.05;82.63
11077;BME280;5591;42.626;23.380;2024-01-30T04:59:59;96121.03;;;1.10;85.06
11077;BME280;5591;42.626;23.380;2024-01-30T05:02:26;96056.06;;;0.71;85.59
11077;BME280;5591;42.626;23.380;2024-01-30T05:04:53;96120.59;;;1.17;85.34
11077;BME280;5591;42.626;23.380;2024-01-30T05:07:20;96116.28;;;1.18;84.41
11077;BME280;5591;42.626;23.380;2024-01-30T05:09:48;96118.69;;;1.21;83.41
11077;BME280;5591;42.626;23.380;2024-01-30T05:12:14;96124.31;;;0.98;84.16
11077;BME280;5591;42.626;23.380;2024-01-30T05:14:42;96131.19;;;1.13;84.73
11077;BME280;5591;42.626;23.380;2024-01-30T05:17:09;96128.97;;;0.91;87.17
11077;BME280;5591;42.626;23.380;2024-01-30T05:19:38;96135.56;;;0.81;88.52
11077;BME280;5591;42.626;23.380;2024-01-30T05:22:04;96130.16;;;0.86;90.38
11077;BME280;5591;42.626;23.380;2024-01-30T05:24:31;96129.78;;;0.76;91.90
11077;BME280;5591;42.626;23.380;2024-01-30T05:26:58;96127.13;;;0.93;91.04
11077;BME280;5591;42.626;23.380;2024-01-30T05:29:25;96123.94;;;1.04;90.46
11077;BME280;5591;42.626;23.380;2024-01-30T05:31:53;96131.63;;;1.05;89.95
11077;BME280;5591;42.626;23.380;2024-01-30T05:34:19;96131.19;;;1.13;90.23
11077;BME280;5591;42.626;23.380;2024-01-30T05:36:46;96137.34;;;1.10;90.29
11077;BME280;5591;42.626;23.380;2024-01-30T05:39:13;96134.44;;;1.16;91.61
11077;BME280;5591;42.626;23.380;2024-01-30T05:41:40;96128.53;;;0.99;93.66
11077;BME280;5591;42.626;23.380;2024-01-30T05:44:06;96143.19;;;0.98;94.55
11077;BME280;5591;42.626;23.380;2024-01-30T05:46:35;96131.31;;;0.96;94.92
11077;BME280;5591;42.626;23.380;2024-01-30T05:49:03;96149.41;;;0.80;94.31
11077;BME280;5591;42.626;23.380;2024-01-30T05:51:30;96146.88;;;0.94;94.37
11077;BME280;5591;42.626;23.380;2024-01-30T05:53:56;96138.22;;;0.95;94.15
11077;BME280;5591;42.626;23.380;2024-01-30T05:56:23;96139.56;;;1.02;93.50
11077;BME280;5591;42.626;23.380;2024-01-30T05:58:50;96139.38;;;0.90;92.38
11077;BME280;5591;42.626;23.380;2024-01-30T06:01:17;96079.53;;;0.35;92.99
11077;BME280;5591;42.626;23.380;2024-01-30T06:03:43;96133.63;;;0.85;92.62
11077;BME280;5591;42.626;23.380;2024-01-30T06:06:11;96137.97;;;0.84;92.15
11077;BME280;5591;42.626;23.380;2024-01-30T06:08:38;96131.56;;;0.91;91.51
11077;BME280;5591;42.626;23.380;2024-01-30T06:11:05;96135.88;;;0.75;92.41
11077;BME280;5591;42.626;23.380;2024-01-30T06:13:32;96136.72;;;0.76;92.84
11077;BME280;5591;42.626;23.380;2024-01-30T06:15:59;96136.38;;;0.82;91.90
11077;BME280;5591;42.626;23.380;2024-01-30T06:18:26;96136.06;;;0.88;91.72
11077;BME280;5591;42.626;23.380;2024-01-30T06:20:54;96135.56;;;0.81;92.06
11077;BME280;5591;42.626;23.380;2024-01-30T06:23:22;96141.03;;;0.91;91.96
11077;BME280;5591;42.626;23.380;2024-01-30T06:25:49;96133.13;;;0.94;90.91
11077;BME280;5591;42.626;23.380;2024-01-30T06:28:16;96137.78;;;1.03;89.15
11077;BME280;5591;42.626;23.380;2024-01-30T06:30:43;96136.19;;;1.16;88.85
11077;BME280;5591;42.626;23.380;2024-01-30T06:33:11;96138.69;;;1.17;87.53
11077;BME280;5591;42.626;23.380;2024-01-30T06:35:38;96140.69;;;1.28;86.02
11077;BME280;5591;42.626;23.380;2024-01-30T06:38:05;96136.19;;;1.61;84.40
11077;BME280;5591;42.626;23.380;2024-01-30T06:40:33;96128.13;;;1.36;83.62
11077;BME280;5591;42.626;23.380;2024-01-30T06:43:00;96140.59;;;1.29;83.54
11077;BME280;5591;42.626;23.380;2024-01-30T06:45:27;96137.94;;;1.60;82.22
11077;BME280;5591;42.626;23.380;2024-01-30T06:47:53;96146.16;;;1.67;80.89
11077;BME280;5591;42.626;23.380;2024-01-30T06:50:20;96088.09;;;1.43;81.21
11077;BME280;5591;42.626;23.380;2024-01-30T06:52:47;96139.16;;;1.69;79.72
11077;BME280;5591;42.626;23.380;2024-01-30T06:55:14;96154.84;;;1.66;78.33
11077;BME280;5591;42.626;23.380;2024-01-30T06:57:42;96148.91;;;1.79;78.61
11077;BME280;5591;42.626;23.380;2024-01-30T07:00:09;96149.69;;;1.66;80.02
11077;BME280;5591;42.626;23.380;2024-01-30T07:02:36;96154.50;;;1.72;79.60
11077;BME280;5591;42.626;23.380;2024-01-30T09:35:07;96128.34;;;6.55;54.46
11077;BME280;5591;42.626;23.380;2024-01-30T09:37:33;96132.72;;;6.65;53.82
11077;BME280;5591;42.626;23.380;2024-01-30T09:40:00;96131.06;;;7.08;54.21
11077;BME280;5591;42.626;23.380;2024-01-30T09:42:32;96122.38;;;7.19;52.76
11077;BME280;5591;42.626;23.380;2024-01-30T09:45:01;96131.66;;;6.90;53.26
11077;BME280;5591;42.626;23.380;2024-01-30T09:47:31;96119.06;;;7.17;53.23
11077;BME280;5591;42.626;23.380;2024-01-30T09:49:58;96117.91;;;7.52;52.63
11077;BME280;5591;42.626;23.380;2024-01-30T09:52:26;96123.34;;;7.07;51.99
11077;BME280;5591;42.626;23.380;2024-01-30T09:54:53;96118.34;;;7.26;52.11
11077;BME280;5591;42.626;23.380;2024-01-30T09:57:20;96118.84;;;7.09;51.74
11077;BME280;5591;42.626;23.380;2024-01-30T09:59:47;96103.59;;;7.67;50.82
11077;BME280;5591;42.626;23.380;2024-01-30T10:02:14;96115.13;;;7.64;50.61
11077;BME280;5591;42.626;23.380;2024-01-30T10:04:41;96105.03;;;8.12;51.19
11077;BME280;5591;42.626;23.380;2024-01-30T10:07:09;96102.63;;;8.40;50.24
11077;BME280;5591;42.626;23.380;2024-01-30T10:09:39;96106.53;;;6.89;51.37
11077;BME280;5591;42.626;23.380;2024-01-30T10:12:06;96096.84;;;7.64;51.08
11077;BME280;5591;42.626;23.380;2024-01-30T10:14:33;96100.19;;;7.66;50.56
11077;BME280;5591;42.626;23.380;2024-01-30T10:17:01;96088.19;;;7.64;51.03
11077;BME280;5591;42.626;23.380;2024-01-30T10:19:28;96100.38;;;7.74;50.48
11077;BME280;5591;42.626;23.380;2024-01-30T10:21:55;96097.06;;;7.93;50.66
11077;BME280;5591;42.626;23.380;2024-01-30T10:24:24;96093.50;;;8.14;50.29
11077;BME280;5591;42.626;23.380;2024-01-30T10:26:51;96102.97;;;8.06;49.56
11077;BME280;5591;42.626;23.380;2024-01-30T10:29:18;96095.56;;;7.17;51.08
11077;BME280;5591;42.626;23.380;2024-01-30T10:31:45;96113.56;;;4.57;56.17
11077;BME280;5591;42.626;23.380;2024-01-30T10:34:12;96094.19;;;5.09;57.50
11077;BME280;5591;42.626;23.380;2024-01-30T10:36:40;96105.84;;;5.97;56.55
11077;BME280;5591;42.626;23.380;2024-01-30T10:39:08;96080.78;;;6.40;55.23
11077;BME280;5591;42.626;23.380;2024-01-30T10:41:42;96107.84;;;6.72;54.14
11077;BME280;5591;42.626;23.380;2024-01-30T10:44:11;96097.94;;;5.75;55.36
11077;BME280;5591;42.626;23.380;2024-01-30T10:46:39;96102.50;;;6.63;54.96
11077;BME280;5591;42.626;23.380;2024-01-30T10:49:09;96094.91;;;6.93;53.85
11077;BME280;5591;42.626;23.380;2024-01-30T10:51:36;96099.75;;;6.86;54.17
11077;BME280;5591;42.626;23.380;2024-01-30T10:54:05;96094.81;;;7.36;53.97
11077;BME280;5591;42.626;23.380;2024-01-30T10:56:33;96031.72;;;6.78;53.18
11077;BME280;5591;42.626;23.380;2024-01-30T10:59:01;96084.50;;;7.24;53.75
11077;BME280;5591;42.626;23.380;2024-01-30T11:01:30;96085.50;;;7.12;53.46
11077;BME280;5591;42.626;23.380;2024-01-30T11:03:57;96085.03;;;6.85;53.90
11077;BME280;5591;42.626;23.380;2024-01-30T11:06:25;96080.78;;;6.84;53.21
11077;BME280;5591;42.626;23.380;2024-01-30T11:09:01;96076.88;;;6.90;53.65
11077;BME280;5591;42.626;23.380;2024-01-30T11:11:29;96081.50;;;6.86;53.56
11077;BME280;5591;42.626;23.380;2024-01-30T11:14:00;96078.78;;;6.66;54.72
11077;BME280;5591;42.626;23.380;2024-01-30T11:16:32;96071.03;;;7.08;53.46
11077;BME280;5591;42.626;23.380;2024-01-30T11:19:00;96045.09;;;6.85;53.17
11077;BME280;5591;42.626;23.380;2024-01-30T11:21:27;96074.09;;;7.13;53.52
11077;BME280;5591;42.626;23.380;2024-01-30T11:23:55;96044.69;;;7.42;53.45
11077;BME280;5591;42.626;23.380;2024-01-30T11:26:25;96064.63;;;8.16;51.81
11077;BME280;5591;42.626;23.380;2024-01-30T11:28:55;96071.97;;;8.22;51.50
11077;BME280;5591;42.626;23.380;2024-01-30T11:31:22;96050.66;;;7.85;52.24
11077;BME280;5591;42.626;23.380;2024-01-30T11:33:52;96010.63;;;8.26;51.27
11077;BME280;5591;42.626;23.380;2024-01-30T11:36:25;96057.56;;;8.87;50.35
11077;BME280;5591;42.626;23.380;2024-01-30T11:38:52;96055.91;;;9.92;48.74
11077;BME280;5591;42.626;23.380;2024-01-30T11:41:19;96057.69;;;11.02;48.29
11077;BME280;5591;42.626;23.380;2024-01-30T11:43:51;96059.28;;;11.13;45.90
11077;BME280;5591;42.626;23.380;2024-01-30T11:46:18;96059.03;;;10.33;47.38
11077;BME280;5591;42.626;23.380;2024-01-30T11:48:45;96055.59;;;10.23;47.17
11077;BME280;5591;42.626;23.380;2024-01-30T11:51:14;96050.56;;;10.49;46.68
11077;BME280;5591;42.626;23.380;2024-01-30T11:53:43;96052.94;;;9.19;47.88
11077;BME280;5591;42.626;23.380;2024-01-30T11:56:12;96056.38;;;9.01;48.94
11077;BME280;5591;42.626;23.380;2024-01-30T11:58:42;96059.41;;;7.12;52.24
11077;BME280;5591;42.626;23.380;2024-01-30T12:01:09;96061.38;;;7.20;52.36
11077;BME280;5591;42.626;23.380;2024-01-30T12:03:36;96055.50;;;7.69;51.42
11077;BME280;5591;42.626;23.380;2024-01-30T12:06:03;96045.47;;;6.69;52.74
11077;BME280;5591;42.626;23.380;2024-01-30T12:08:31;96045.75;;;6.44;53.73
11077;BME280;5591;42.626;23.380;2024-01-30T12:10:58;96024.78;;;6.99;52.85
11077;BME280;5591;42.626;23.380;2024-01-30T12:13:26;96038.25;;;6.51;54.69
11077;BME280;5591;42.626;23.380;2024-01-30T12:15:54;96039.09;;;7.47;53.57
11077;BME280;5591;42.626;23.380;2024-01-30T12:18:21;96022.94;;;9.61;49.53
11077;BME280;5591;42.626;23.380;2024-01-30T12:20:56;96014.78;;;11.29;46.44
11077;BME280;5591;42.626;23.380;2024-01-30T12:23:24;96000.16;;;13.22;42.98
11077;BME280;5591;42.626;23.380;2024-01-30T12:25:52;96008.00;;;11.96;43.63
11077;BME280;5591;42.626;23.380;2024-01-30T12:28:20;96001.22;;;13.53;41.48
11077;BME280;5591;42.626;23.380;2024-01-30T12:30:47;95992.66;;;14.15;41.08
11077;BME280;5591;42.626;23.380;2024-01-30T12:33:16;95985.38;;;13.45;41.50
11077;BME280;5591;42.626;23.380;2024-01-30T12:35:45;95981.94;;;14.48;40.62
11077;BME280;5591;42.626;23.380;2024-01-30T12:38:12;95977.09;;;14.60;39.28
11077;BME280;5591;42.626;23.380;2024-01-30T12:40:39;95974.41;;;14.76;39.04
11077;BME280;5591;42.626;23.380;2024-01-30T12:43:08;95975.59;;;15.03;38.07
11077;BME280;5591;42.626;23.380;2024-01-30T12:45:36;95974.94;;;14.63;38.62
11077;BME280;5591;42.626;23.380;2024-01-30T12:48:03;95976.50;;;14.10;38.62
11077;BME280;5591;42.626;23.380;2024-01-30T12:50:29;95976.03;;;13.74;39.38
11077;BME280;5591;42.626;23.380;2024-01-30T19:38:04;96008.13;;;-0.12;100.00
11077;BME280;5591;42.626;23.380;2024-01-30T19:40:33;96010.66;;;-0.10;100.00
11077;BME280;5591;42.626;23.380;2024-01-30T19:43:00;96008.75;;;-0.07;100.00
11077;BME280;5591;42.626;23.380;2024-01-30T19:45:27;96002.16;;;-0.12;100.00
11077;BME280;5591;42.626;23.380;2024-01-30T19:47:53;96008.22;;;-0.29;100.00
11077;BME280;5591;42.626;23.380;2024-01-30T19:50:20;96003.59;;;-0.39;100.00
11077;BME280;5591;42.626;23.380;2024-01-30T19:52:47;96027.41;;;-0.34;100.00
11077;BME280;5591;42.626;23.380;2024-01-30T19:55:15;96006.69;;;-0.33;100.00
11077;BME280;5591;42.626;23.380;2024-01-30T19:57:42;96003.03;;;-0.44;100.00
11077;BME280;5591;42.626;23.380;2024-01-30T20:00:10;96005.56;;;-0.60;100.00
11077;BME280;5591;42.626;23.380;2024-01-30T20:02:38;96003.78;;;-0.59;100.00
11077;BME280;5591;42.626;23.380;2024-01-30T20:05:06;95998.50;;;-0.56;100.00
11077;BME280;5591;42.626;23.380;2024-01-30T20:07:33;95997.34;;;-0.51;100.00
11077;BME280;5591;42.626;23.380;2024-01-30T20:10:01;96000.69;;;-0.49;100.00
11077;BME280;5591;42.626;23.380;2024-01-30T20:12:29;96001.03;;;-0.39;100.00
11077;BME280;5591;42.626;23.380;2024-01-30T20:14:56;96002.53;;;-0.35;100.00
11077;BME280;5591;42.626;23.380;2024-01-30T20:17:23;96003.28;;;-0.33;100.00
11077;BME280;5591;42.626;23.380;2024-01-30T20:19:49;96001.63;;;-0.34;100.00
11077;BME280;5591;42.626;23.380;2024-01-30T20:22:18;95999.50;;;-0.26;100.00
11077;BME280;5591;42.626;23.380;2024-01-30T20:24:45;95997.56;;;-0.23;100.00
11077;BME280;5591;42.626;23.380;2024-01-30T20:27:12;95989.41;;;-0.31;100.00
11077;BME280;5591;42.626;23.380;2024-01-30T20:29:40;95993.63;;;-0.45;100.00
11077;BME280;5591;42.626;23.380;2024-01-30T20:32:06;95994.75;;;-0.18;100.00
11077;BME280;5591;42.626;23.380;2024-01-30T20:34:33;95992.56;;;-0.26;100.00
11077;BME280;5591;42.626;23.380;2024-01-30T20:37:00;95986.50;;;-0.25;100.00
11077;BME280;5591;42.626;23.380;2024-01-30T20:39:27;95989.78;;;-0.38;100.00
11077;BME280;5591;42.626;23.380;2024-01-30T20:41:53;95982.84;;;-0.36;100.00
11077;BME280;5591;42.626;23.380;2024-01-30T20:44:21;95985.75;;;-0.59;100.00
11077;BME280;5591;42.626;23.380;2024-01-30T20:46:49;95991.53;;;-0.71;100.00
11077;BME280;5591;42.626;23.380;2024-01-30T20:49:16;95993.22;;;-0.87;100.00
11077;BME280;5591;42.626;23.380;2024-01-30T20:51:43;95996.63;;;-0.87;100.00
11077;BME280;5591;42.626;23.380;2024-01-30T20:54:09;95986.28;;;-1.19;100.00
11077;BME280;5591;42.626;23.380;2024-01-30T20:56:37;95985.66;;;-1.24;100.00
11077;BME280;5591;42.626;23.380;2024-01-30T20:59:04;95987.63;;;-1.12;100.00
11077;BME280;5591;42.626;23.380;2024-01-30T21:01:30;95981.34;;;-0.90;100.00
11077;BME280;5591;42.626;23.380;2024-01-30T21:03:58;95982.00;;;-0.86;100.00
11077;BME280;5591;42.626;23.380;2024-01-30T21:06:25;95959.00;;;-0.89;100.00
11077;BME280;5591;42.626;23.380;2024-01-30T21:08:52;95976.88;;;-0.86;100.00
11077;BME280;5591;42.626;23.380;2024-01-30T21:11:19;95978.28;;;-0.64;100.00
11077;BME280;5591;42.626;23.380;2024-01-30T21:13:46;95977.38;;;-0.63;100.00
11077;BME280;5591;42.626;23.380;2024-01-30T21:16:13;95976.53;;;-0.63;100.00
11077;BME280;5591;42.626;23.380;2024-01-30T21:18:40;95970.56;;;-0.48;100.00
11077;BME280;5591;42.626;23.380;2024-01-30T21:21:09;95972.25;;;-0.47;100.00
11077;BME280;5591;42.626;23.380;2024-01-30T21:23:36;95980.00;;;-0.47;100.00
11077;BME280;5591;42.626;23.380;2024-01-30T21:26:03;95977.41;;;-0.47;100.00
11077;BME280;5591;42.626;23.380;2024-01-30T21:28:31;95976.63;;;-0.49;100.00
11077;BME280;5591;42.626;23.380;2024-01-30T21:30:58;95975.06;;;-0.52;100.00
11077;BME280;5591;42.626;23.380;2024-01-30T21:33:24;95979.84;;;-0.61;100.00
11077;BME280;5591;42.626;23.380;2024-01-30T21:35:51;95963.88;;;-0.68;100.00
11077;BME280;5591;42.626;23.380;2024-01-30T21:38:20;95984.47;;;-0.68;100.00
11077;BME280;5591;42.626;23.380;2024-01-30T21:40:47;95970.91;;;-0.71;100.00
11077;BME280;5591;42.626;23.380;2024-01-30T21:43:13;95970.50;;;-0.79;100.00
11077;BME280;5591;42.626;23.380;2024-01-30T21:45:40;95978.13;;;-0.78;100.00
11077;BME280;5591;42.626;23.380;2024-01-30T21:48:07;95972.91;;;-0.93;100.00
11077;BME280;5591;42.626;23.380;2024-01-30T21:50:34;95964.16;;;-1.06;100.00
11077;BME280;5591;42.626;23.380;2024-01-30T21:53:01;95975.66;;;-1.13;100.00
11077;BME280;5591;42.626;23.380;2024-01-30T21:55:30;95964.94;;;-1.21;100.00
11077;BME280;5591;42.626;23.380;2024-01-30T21:57:56;95966.06;;;-1.27;100.00
11077;BME280;5591;42.626;23.380;2024-01-30T22:00:23;95971.50;;;-1.33;100.00
11077;BME280;5591;42.626;23.380;2024-01-30T22:02:50;95971.88;;;-1.40;100.00
11077;BME280;5591;42.626;23.380;2024-01-30T22:05:17;95969.81;;;-1.51;100.00
11077;BME280;5591;42.626;23.380;2024-01-30T22:07:44;95973.44;;;-1.55;100.00
11077;BME280;5591;42.626;23.380;2024-01-30T22:10:10;95975.91;;;-1.70;100.00
11077;BME280;5591;42.626;23.380;2024-01-30T22:12:39;95971.69;;;-1.71;100.00
11077;BME280;5591;42.626;23.380;2024-01-30T22:15:06;95975.38;;;-1.77;100.00
11077;BME280;5591;42.626;23.380;2024-01-30T22:17:34;95963.63;;;-1.82;100.00
11077;BME280;5591;42.626;23.380;2024-01-30T22:20:00;95957.69;;;-1.66;100.00